world map with VOL marked

VOL - Airport

This information may not be accurate or current and is not valid for navigation or flight planning. No warranty of fitness for any purpose is made or implied.

flag of Greece

Donate via PayPal

Additional information is available on the NEW Great Circle Mapper

Location
City:  Volos, Thessalía (Thessaly), Greece
Near (Alt.):Almiros
Name:Nea Anchialos
ICAO / IATA:LGBL / VOL

Details
Type:Airport (Aerodrome, Airfield)
Use:Military
Latitude:39°13'11"N (39.219619)
Longitude:22°47'40"E (22.794339)
Datum:WGS 1984
Elevation:83 ft (25 m)
Runways:1
Longest:9052 × 148 ft (2759 × 45 m)

Time
Timezone:UTC+2 (DST+5)
Local Time:

Weather
METAR:LGBL  041350Z 10006KT 9999 FEW025 15/11 Q1017 RMK SCT100 BKN180 BLU
TAF:LGBL  (expired)

Related Locations
Nearby:
Farthest:CHT: 11396 mi / 18339 km
Waitangi [Tuuta], CIT, NZ

Find:

   beyond  
but within

Other Information
Maps:
Sources:

  


 


Great Circle Mapper   Great Circle Mapper
Great Circle Mapper FAQ   Great Circle Mapper FAQ
  Karl's Home Page
KLS²   KLS² Home
   GC on Facebook
Airlines of the World   Airlines of the World
Donate via PayPal


Copyright © 2004-2019, Karl L. Swartz. All rights reserved.
All trademarks mentioned herein belong to their respective owners.

Please see credits for attribution and copyright information.

Karl Swartz <karl@kls2.com>
  Powered by FreeBSD
Valid HTML 4.01!
Labeled with ICRA
hCard Microformat
Geo Microformat